sensor_id;sensor_type;location;lat;lon;timestamp;P1;durP1;ratioP1;P2;durP2;ratioP2
44722;SDS011;30451;48.638;10.624;2023-03-21T00:01:58;40.80;;;28.15;;
44722;SDS011;30451;48.638;10.624;2023-03-21T00:04:24;39.95;;;27.10;;
44722;SDS011;30451;48.638;10.624;2023-03-21T00:06:50;37.72;;;27.63;;
44722;SDS011;30451;48.638;10.624;2023-03-21T00:09:16;38.85;;;27.42;;
44722;SDS011;30451;48.638;10.624;2023-03-21T00:11:42;38.90;;;27.33;;
44722;SDS011;30451;48.638;10.624;2023-03-21T00:14:08;38.40;;;26.88;;
44722;SDS011;30451;48.638;10.624;2023-03-21T00:16:38;38.33;;;27.17;;
44722;SDS011;30451;48.638;10.624;2023-03-21T00:19:04;36.08;;;26.35;;
44722;SDS011;30451;48.638;10.624;2023-03-21T00:21:30;35.65;;;25.35;;
44722;SDS011;30451;48.638;10.624;2023-03-21T00:23:58;36.83;;;25.90;;
44722;SDS011;30451;48.638;10.624;2023-03-21T00:26:24;35.42;;;25.20;;
44722;SDS011;30451;48.638;10.624;2023-03-21T00:28:50;36.35;;;24.65;;
44722;SDS011;30451;48.638;10.624;2023-03-21T00:31:16;33.67;;;24.70;;
44722;SDS011;30451;48.638;10.624;2023-03-21T00:33:42;33.50;;;24.17;;
44722;SDS011;30451;48.638;10.624;2023-03-21T00:36:08;32.83;;;24.65;;
44722;SDS011;30451;48.638;10.624;2023-03-21T00:38:35;35.17;;;24.95;;
44722;SDS011;30451;48.638;10.624;2023-03-21T00:41:04;32.70;;;23.48;;
44722;SDS011;30451;48.638;10.624;2023-03-21T00:43:31;32.28;;;23.10;;
44722;SDS011;30451;48.638;10.624;2023-03-21T00:45:57;31.80;;;22.63;;
44722;SDS011;30451;48.638;10.624;2023-03-21T00:48:23;30.98;;;22.48;;
44722;SDS011;30451;48.638;10.624;2023-03-21T00:50:50;33.13;;;23.80;;
44722;SDS011;30451;48.638;10.624;2023-03-21T00:53:18;32.72;;;23.25;;
44722;SDS011;30451;48.638;10.624;2023-03-21T00:55:44;30.80;;;22.95;;
44722;SDS011;30451;48.638;10.624;2023-03-21T00:58:09;32.25;;;23.30;;
44722;SDS011;30451;48.638;10.624;2023-03-21T01:00:35;31.45;;;22.80;;
44722;SDS011;30451;48.638;10.624;2023-03-21T01:03:02;29.20;;;21.38;;
44722;SDS011;30451;48.638;10.624;2023-03-21T01:05:39;29.60;;;21.15;;
44722;SDS011;30451;48.638;10.624;2023-03-21T01:08:25;29.17;;;21.30;;
44722;SDS011;30451;48.638;10.624;2023-03-21T01:10:52;31.63;;;22.33;;
44722;SDS011;30451;48.638;10.624;2023-03-21T01:13:19;28.92;;;21.25;;
44722;SDS011;30451;48.638;10.624;2023-03-21T01:15:47;30.45;;;21.63;;
44722;SDS011;30451;48.638;10.624;2023-03-21T01:18:15;30.02;;;22.65;;
44722;SDS011;30451;48.638;10.624;2023-03-21T01:20:42;30.85;;;22.38;;
44722;SDS011;30451;48.638;10.624;2023-03-21T01:23:09;28.55;;;20.52;;
44722;SDS011;30451;48.638;10.624;2023-03-21T01:25:36;25.83;;;19.85;;
44722;SDS011;30451;48.638;10.624;2023-03-21T01:28:02;27.08;;;20.05;;
44722;SDS011;30451;48.638;10.624;2023-03-21T01:30:28;26.50;;;19.13;;
44722;SDS011;30451;48.638;10.624;2023-03-21T01:32:54;27.98;;;19.40;;
44722;SDS011;30451;48.638;10.624;2023-03-21T01:35:20;27.85;;;19.52;;
44722;SDS011;30451;48.638;10.624;2023-03-21T01:37:46;25.02;;;19.13;;
44722;SDS011;30451;48.638;10.624;2023-03-21T01:40:16;24.27;;;19.42;;
44722;SDS011;30451;48.638;10.624;2023-03-21T01:42:44;26.75;;;18.73;;
44722;SDS011;30451;48.638;10.624;2023-03-21T01:48:13;27.55;;;20.35;;
44722;SDS011;30451;48.638;10.624;2023-03-21T01:50:39;25.90;;;19.08;;
44722;SDS011;30451;48.638;10.624;2023-03-21T01:53:07;26.65;;;18.88;;
44722;SDS011;30451;48.638;10.624;2023-03-21T01:55:33;22.98;;;17.58;;
44722;SDS011;30451;48.638;10.624;2023-03-21T01:58:00;23.98;;;18.00;;
44722;SDS011;30451;48.638;10.624;2023-03-21T02:00:28;25.45;;;19.23;;
44722;SDS011;30451;48.638;10.624;2023-03-21T02:02:55;24.20;;;17.88;;
44722;SDS011;30451;48.638;10.624;2023-03-21T02:05:26;26.02;;;18.13;;
44722;SDS011;30451;48.638;10.624;2023-03-21T02:07:54;24.50;;;17.42;;
44722;SDS011;30451;48.638;10.624;2023-03-21T02:10:20;23.50;;;16.33;;
44722;SDS011;30451;48.638;10.624;2023-03-21T02:12:46;21.27;;;16.77;;
44722;SDS011;30451;48.638;10.624;2023-03-21T02:15:12;22.33;;;16.05;;
44722;SDS011;30451;48.638;10.624;2023-03-21T02:17:53;24.13;;;17.50;;
44722;SDS011;30451;48.638;10.624;2023-03-21T02:28:25;22.27;;;16.63;;
44722;SDS011;30451;48.638;10.624;2023-03-21T02:31:04;20.77;;;14.85;;
44722;SDS011;30451;48.638;10.624;2023-03-21T02:42:00;21.13;;;15.13;;
44722;SDS011;30451;48.638;10.624;2023-03-21T02:52:51;20.02;;;14.75;;
44722;SDS011;30451;48.638;10.624;2023-03-21T02:55:20;18.08;;;13.73;;
44722;SDS011;30451;48.638;10.624;2023-03-21T02:57:49;17.83;;;13.82;;
44722;SDS011;30451;48.638;10.624;2023-03-21T03:00:18;16.95;;;13.45;;
44722;SDS011;30451;48.638;10.624;2023-03-21T03:05:18;18.25;;;14.10;;
44722;SDS011;30451;48.638;10.624;2023-03-21T03:13:14;17.77;;;13.10;;
44722;SDS011;30451;48.638;10.624;2023-03-21T03:18:31;16.70;;;12.88;;
44722;SDS011;30451;48.638;10.624;2023-03-21T03:24:11;17.52;;;12.93;;
44722;SDS011;30451;48.638;10.624;2023-03-21T03:26:44;17.45;;;12.50;;
44722;SDS011;30451;48.638;10.624;2023-03-21T03:29:14;16.58;;;11.95;;
44722;SDS011;30451;48.638;10.624;2023-03-21T03:31:45;16.67;;;12.70;;
44722;SDS011;30451;48.638;10.624;2023-03-21T03:34:31;16.42;;;11.88;;
44722;SDS011;30451;48.638;10.624;2023-03-21T03:37:04;15.70;;;11.98;;
44722;SDS011;30451;48.638;10.624;2023-03-21T03:39:37;15.57;;;11.80;;
44722;SDS011;30451;48.638;10.624;2023-03-21T03:42:11;14.60;;;11.52;;
44722;SDS011;30451;48.638;10.624;2023-03-21T03:44:40;15.75;;;11.32;;
44722;SDS011;30451;48.638;10.624;2023-03-21T03:47:10;14.18;;;10.95;;
44722;SDS011;30451;48.638;10.624;2023-03-21T03:49:59;14.25;;;11.05;;
44722;SDS011;30451;48.638;10.624;2023-03-21T03:52:30;15.27;;;11.50;;
44722;SDS011;30451;48.638;10.624;2023-03-21T03:55:01;14.57;;;10.98;;
44722;SDS011;30451;48.638;10.624;2023-03-21T03:57:27;13.52;;;10.68;;
44722;SDS011;30451;48.638;10.624;2023-03-21T03:59:54;14.05;;;11.02;;
44722;SDS011;30451;48.638;10.624;2023-03-21T04:02:20;14.48;;;10.27;;
44722;SDS011;30451;48.638;10.624;2023-03-21T04:04:45;13.68;;;10.80;;
44722;SDS011;30451;48.638;10.624;2023-03-21T04:07:12;12.38;;;9.73;;
44722;SDS011;30451;48.638;10.624;2023-03-21T04:09:38;14.27;;;10.35;;
44722;SDS011;30451;48.638;10.624;2023-03-21T04:12:04;13.77;;;10.52;;
44722;SDS011;30451;48.638;10.624;2023-03-21T04:14:30;15.52;;;11.35;;
44722;SDS011;30451;48.638;10.624;2023-03-21T04:16:55;14.43;;;10.82;;
44722;SDS011;30451;48.638;10.624;2023-03-21T04:19:21;13.25;;;10.70;;
44722;SDS011;30451;48.638;10.624;2023-03-21T04:21:46;14.00;;;10.48;;
44722;SDS011;30451;48.638;10.624;2023-03-21T04:24:12;14.18;;;11.20;;
44722;SDS011;30451;48.638;10.624;2023-03-21T04:26:38;12.48;;;9.98;;
44722;SDS011;30451;48.638;10.624;2023-03-21T04:29:05;13.07;;;10.07;;
44722;SDS011;30451;48.638;10.624;2023-03-21T04:31:31;12.20;;;9.98;;
44722;SDS011;30451;48.638;10.624;2023-03-21T04:33:58;12.43;;;9.52;;
44722;SDS011;30451;48.638;10.624;2023-03-21T04:36:25;13.45;;;10.25;;
44722;SDS011;30451;48.638;10.624;2023-03-21T04:38:57;12.80;;;9.93;;
44722;SDS011;30451;48.638;10.624;2023-03-21T04:41:26;13.15;;;10.02;;
44722;SDS011;30451;48.638;10.624;2023-03-21T04:43:52;12.93;;;9.75;;
44722;SDS011;30451;48.638;10.624;2023-03-21T04:46:18;12.27;;;9.90;;
44722;SDS011;30451;48.638;10.624;2023-03-21T04:48:44;12.77;;;9.38;;
44722;SDS011;30451;48.638;10.624;2023-03-21T04:51:11;13.02;;;10.02;;
44722;SDS011;30451;48.638;10.624;2023-03-21T04:53:36;11.68;;;9.27;;
44722;SDS011;30451;48.638;10.624;2023-03-21T04:56:03;12.07;;;9.15;;
44722;SDS011;30451;48.638;10.624;2023-03-21T04:58:30;11.52;;;9.00;;
44722;SDS011;30451;48.638;10.624;2023-03-21T05:00:56;11.48;;;8.80;;
44722;SDS011;30451;48.638;10.624;2023-03-21T05:03:22;12.18;;;9.52;;
44722;SDS011;30451;48.638;10.624;2023-03-21T05:05:48;11.63;;;9.20;;
44722;SDS011;30451;48.638;10.624;2023-03-21T05:08:14;11.70;;;9.13;;
44722;SDS011;30451;48.638;10.624;2023-03-21T05:10:40;11.95;;;9.73;;
44722;SDS011;30451;48.638;10.624;2023-03-21T05:13:07;11.48;;;9.25;;
44722;SDS011;30451;48.638;10.624;2023-03-21T05:15:32;11.73;;;8.88;;
44722;SDS011;30451;48.638;10.624;2023-03-21T05:17:58;13.10;;;10.38;;
44722;SDS011;30451;48.638;10.624;2023-03-21T05:20:36;11.82;;;9.02;;
44722;SDS011;30451;48.638;10.624;2023-03-21T05:23:06;11.57;;;8.98;;
44722;SDS011;30451;48.638;10.624;2023-03-21T05:25:38;11.75;;;8.75;;
44722;SDS011;30451;48.638;10.624;2023-03-21T05:28:05;11.70;;;9.13;;
44722;SDS011;30451;48.638;10.624;2023-03-21T05:30:31;11.00;;;8.65;;
44722;SDS011;30451;48.638;10.624;2023-03-21T05:32:57;11.73;;;9.30;;
44722;SDS011;30451;48.638;10.624;2023-03-21T05:35:24;10.80;;;8.27;;
44722;SDS011;30451;48.638;10.624;2023-03-21T05:37:50;12.02;;;9.35;;
44722;SDS011;30451;48.638;10.624;2023-03-21T05:40:16;11.20;;;8.50;;
44722;SDS011;30451;48.638;10.624;2023-03-21T05:42:42;11.48;;;8.73;;
44722;SDS011;30451;48.638;10.624;2023-03-21T05:45:07;10.18;;;8.25;;
44722;SDS011;30451;48.638;10.624;2023-03-21T05:47:33;9.75;;;7.85;;
44722;SDS011;30451;48.638;10.624;2023-03-21T05:50:00;10.27;;;8.15;;
44722;SDS011;30451;48.638;10.624;2023-03-21T05:52:25;10.27;;;7.85;;
44722;SDS011;30451;48.638;10.624;2023-03-21T05:54:52;9.52;;;8.23;;
44722;SDS011;30451;48.638;10.624;2023-03-21T05:57:18;10.05;;;7.63;;
44722;SDS011;30451;48.638;10.624;2023-03-21T05:59:43;9.93;;;8.15;;
44722;SDS011;30451;48.638;10.624;2023-03-21T06:02:09;11.32;;;8.02;;
44722;SDS011;30451;48.638;10.624;2023-03-21T06:04:35;11.70;;;9.00;;
44722;SDS011;30451;48.638;10.624;2023-03-21T06:07:01;10.77;;;8.43;;
44722;SDS011;30451;48.638;10.624;2023-03-21T06:09:27;11.07;;;8.68;;
44722;SDS011;30451;48.638;10.624;2023-03-21T06:11:54;9.68;;;7.88;;
44722;SDS011;30451;48.638;10.624;2023-03-21T06:14:21;10.50;;;8.15;;
44722;SDS011;30451;48.638;10.624;2023-03-21T06:16:48;9.90;;;7.70;;
44722;SDS011;30451;48.638;10.624;2023-03-21T06:19:14;10.27;;;8.25;;
44722;SDS011;30451;48.638;10.624;2023-03-21T06:21:40;10.23;;;8.48;;
44722;SDS011;30451;48.638;10.624;2023-03-21T06:24:06;10.52;;;7.90;;
44722;SDS011;30451;48.638;10.624;2023-03-21T06:26:32;10.18;;;7.90;;
44722;SDS011;30451;48.638;10.624;2023-03-21T06:28:58;9.40;;;7.47;;
44722;SDS011;30451;48.638;10.624;2023-03-21T06:31:23;9.88;;;7.63;;
44722;SDS011;30451;48.638;10.624;2023-03-21T06:33:50;10.05;;;7.72;;
44722;SDS011;30451;48.638;10.624;2023-03-21T06:36:16;11.88;;;8.75;;
44722;SDS011;30451;48.638;10.624;2023-03-21T06:38:42;11.32;;;8.05;;
44722;SDS011;30451;48.638;10.624;2023-03-21T06:41:08;11.63;;;8.32;;
44722;SDS011;30451;48.638;10.624;2023-03-21T06:43:34;10.52;;;7.47;;
44722;SDS011;30451;48.638;10.624;2023-03-21T06:46:00;8.52;;;6.85;;
44722;SDS011;30451;48.638;10.624;2023-03-21T06:48:27;9.88;;;7.80;;
44722;SDS011;30451;48.638;10.624;2023-03-21T06:50:53;9.80;;;7.53;;
44722;SDS011;30451;48.638;10.624;2023-03-21T06:53:21;9.60;;;7.78;;
44722;SDS011;30451;48.638;10.624;2023-03-21T06:55:54;9.95;;;7.75;;
44722;SDS011;30451;48.638;10.624;2023-03-21T06:58:20;9.90;;;7.53;;
44722;SDS011;30451;48.638;10.624;2023-03-21T07:00:46;9.75;;;7.57;;
44722;SDS011;30451;48.638;10.624;2023-03-21T07:03:13;9.73;;;7.47;;
44722;SDS011;30451;48.638;10.624;2023-03-21T07:05:39;9.45;;;6.85;;
44722;SDS011;30451;48.638;10.624;2023-03-21T07:08:06;10.07;;;7.43;;
44722;SDS011;30451;48.638;10.624;2023-03-21T07:10:40;9.80;;;7.47;;
44722;SDS011;30451;48.638;10.624;2023-03-21T07:13:07;9.77;;;7.57;;
44722;SDS011;30451;48.638;10.624;2023-03-21T07:15:33;9.32;;;6.75;;
44722;SDS011;30451;48.638;10.624;2023-03-21T07:18:02;9.60;;;7.30;;
44722;SDS011;30451;48.638;10.624;2023-03-21T07:20:28;9.65;;;7.43;;
44722;SDS011;30451;48.638;10.624;2023-03-21T07:22:54;8.98;;;6.93;;
44722;SDS011;30451;48.638;10.624;2023-03-21T07:25:20;8.45;;;6.60;;
44722;SDS011;30451;48.638;10.624;2023-03-21T07:27:46;8.98;;;6.65;;
44722;SDS011;30451;48.638;10.624;2023-03-21T07:30:12;9.38;;;7.03;;
44722;SDS011;30451;48.638;10.624;2023-03-21T07:32:38;9.18;;;6.88;;
44722;SDS011;30451;48.638;10.624;2023-03-21T07:35:07;8.75;;;6.85;;
44722;SDS011;30451;48.638;10.624;2023-03-21T07:37:35;9.02;;;6.82;;
44722;SDS011;30451;48.638;10.624;2023-03-21T07:40:02;7.25;;;6.18;;
44722;SDS011;30451;48.638;10.624;2023-03-21T07:42:33;8.38;;;6.65;;
44722;SDS011;30451;48.638;10.624;2023-03-21T07:44:59;9.30;;;6.63;;
44722;SDS011;30451;48.638;10.624;2023-03-21T07:47:25;8.57;;;6.35;;
44722;SDS011;30451;48.638;10.624;2023-03-21T07:49:50;7.43;;;6.00;;
44722;SDS011;30451;48.638;10.624;2023-03-21T07:52:16;8.70;;;6.45;;
44722;SDS011;30451;48.638;10.624;2023-03-21T07:54:42;7.78;;;5.95;;
44722;SDS011;30451;48.638;10.624;2023-03-21T07:57:07;8.57;;;6.50;;
44722;SDS011;30451;48.638;10.624;2023-03-21T07:59:33;8.75;;;6.53;;
44722;SDS011;30451;48.638;10.624;2023-03-21T08:01:59;8.32;;;6.57;;
44722;SDS011;30451;48.638;10.624;2023-03-21T08:04:24;8.40;;;6.43;;
44722;SDS011;30451;48.638;10.624;2023-03-21T08:06:50;8.80;;;6.45;;
44722;SDS011;30451;48.638;10.624;2023-03-21T08:09:15;7.60;;;6.07;;
44722;SDS011;30451;48.638;10.624;2023-03-21T08:11:41;8.98;;;6.05;;
44722;SDS011;30451;48.638;10.624;2023-03-21T08:14:07;7.85;;;6.10;;
44722;SDS011;30451;48.638;10.624;2023-03-21T08:16:32;8.68;;;6.20;;
44722;SDS011;30451;48.638;10.624;2023-03-21T08:18:58;8.15;;;6.07;;
44722;SDS011;30451;48.638;10.624;2023-03-21T08:21:24;7.45;;;5.97;;
44722;SDS011;30451;48.638;10.624;2023-03-21T08:23:50;8.00;;;6.22;;
44722;SDS011;30451;48.638;10.624;2023-03-21T08:26:17;7.82;;;6.20;;
44722;SDS011;30451;48.638;10.624;2023-03-21T08:28:43;7.32;;;6.00;;
44722;SDS011;30451;48.638;10.624;2023-03-21T08:31:10;7.90;;;6.35;;
44722;SDS011;30451;48.638;10.624;2023-03-21T08:33:38;7.63;;;6.13;;
44722;SDS011;30451;48.638;10.624;2023-03-21T08:36:04;8.00;;;5.93;;
44722;SDS011;30451;48.638;10.624;2023-03-21T08:38:30;8.48;;;6.07;;
44722;SDS011;30451;48.638;10.624;2023-03-21T08:40:58;7.10;;;5.78;;
44722;SDS011;30451;48.638;10.624;2023-03-21T08:43:27;8.15;;;6.13;;
44722;SDS011;30451;48.638;10.624;2023-03-21T08:45:54;7.93;;;6.07;;
44722;SDS011;30451;48.638;10.624;2023-03-21T08:48:20;7.85;;;5.50;;
44722;SDS011;30451;48.638;10.624;2023-03-21T08:50:46;6.65;;;5.07;;
44722;SDS011;30451;48.638;10.624;2023-03-21T08:53:12;6.70;;;5.18;;
44722;SDS011;30451;48.638;10.624;2023-03-21T08:55:38;7.75;;;5.78;;
44722;SDS011;30451;48.638;10.624;2023-03-21T08:58:04;6.43;;;5.38;;
44722;SDS011;30451;48.638;10.624;2023-03-21T09:00:31;7.88;;;5.65;;
44722;SDS011;30451;48.638;10.624;2023-03-21T09:02:56;7.57;;;5.50;;
44722;SDS011;30451;48.638;10.624;2023-03-21T09:05:22;6.30;;;4.80;;
44722;SDS011;30451;48.638;10.624;2023-03-21T09:07:50;6.18;;;4.78;;
44722;SDS011;30451;48.638;10.624;2023-03-21T09:10:17;5.93;;;4.50;;
44722;SDS011;30451;48.638;10.624;2023-03-21T09:12:45;5.90;;;4.87;;
44722;SDS011;30451;48.638;10.624;2023-03-21T09:15:11;6.30;;;4.63;;
44722;SDS011;30451;48.638;10.624;2023-03-21T09:17:38;6.35;;;4.90;;
44722;SDS011;30451;48.638;10.624;2023-03-21T09:20:08;6.90;;;4.97;;
44722;SDS011;30451;48.638;10.624;2023-03-21T09:22:46;6.80;;;4.60;;
44722;SDS011;30451;48.638;10.624;2023-03-21T09:25:14;6.53;;;4.50;;
44722;SDS011;30451;48.638;10.624;2023-03-21T09:27:40;5.28;;;4.13;;
44722;SDS011;30451;48.638;10.624;2023-03-21T09:30:07;6.30;;;4.82;;
44722;SDS011;30451;48.638;10.624;2023-03-21T09:32:34;6.00;;;4.63;;
44722;SDS011;30451;48.638;10.624;2023-03-21T09:35:00;5.68;;;4.28;;
44722;SDS011;30451;48.638;10.624;2023-03-21T09:37:26;5.70;;;4.25;;
44722;SDS011;30451;48.638;10.624;2023-03-21T09:39:52;5.72;;;4.63;;
44722;SDS011;30451;48.638;10.624;2023-03-21T09:42:41;6.20;;;4.47;;
44722;SDS011;30451;48.638;10.624;2023-03-21T09:45:12;5.00;;;4.18;;
44722;SDS011;30451;48.638;10.624;2023-03-21T09:47:46;5.60;;;4.32;;
44722;SDS011;30451;48.638;10.624;2023-03-21T09:55:27;5.68;;;4.35;;
44722;SDS011;30451;48.638;10.624;2023-03-21T09:58:06;5.55;;;4.18;;
44722;SDS011;30451;48.638;10.624;2023-03-21T10:00:39;5.50;;;4.25;;
44722;SDS011;30451;48.638;10.624;2023-03-21T10:03:14;5.53;;;4.00;;
44722;SDS011;30451;48.638;10.624;2023-03-21T10:05:47;6.13;;;4.70;;
44722;SDS011;30451;48.638;10.624;2023-03-21T10:08:20;5.97;;;4.40;;
44722;SDS011;30451;48.638;10.624;2023-03-21T10:10:56;5.80;;;4.53;;
44722;SDS011;30451;48.638;10.624;2023-03-21T10:13:31;5.40;;;3.80;;
44722;SDS011;30451;48.638;10.624;2023-03-21T10:16:00;5.60;;;4.25;;
44722;SDS011;30451;48.638;10.624;2023-03-21T10:18:33;6.35;;;4.70;;
44722;SDS011;30451;48.638;10.624;2023-03-21T10:21:02;5.57;;;4.50;;
44722;SDS011;30451;48.638;10.624;2023-03-21T10:23:29;6.10;;;4.50;;
44722;SDS011;30451;48.638;10.624;2023-03-21T10:25:59;5.38;;;4.45;;
44722;SDS011;30451;48.638;10.624;2023-03-21T10:28:28;5.40;;;4.28;;
44722;SDS011;30451;48.638;10.624;2023-03-21T10:31:00;5.28;;;3.97;;
44722;SDS011;30451;48.638;10.624;2023-03-21T10:33:31;5.82;;;4.40;;
44722;SDS011;30451;48.638;10.624;2023-03-21T10:36:07;5.43;;;4.10;;
44722;SDS011;30451;48.638;10.624;2023-03-21T10:38:35;4.90;;;3.80;;
44722;SDS011;30451;48.638;10.624;2023-03-21T10:43:32;5.00;;;3.80;;
44722;SDS011;30451;48.638;10.624;2023-03-21T10:46:12;4.85;;;3.45;;
44722;SDS011;30451;48.638;10.624;2023-03-21T10:48:42;5.50;;;4.03;;
44722;SDS011;30451;48.638;10.624;2023-03-21T10:51:11;5.32;;;4.00;;
44722;SDS011;30451;48.638;10.624;2023-03-21T10:53:44;5.50;;;4.05;;
44722;SDS011;30451;48.638;10.624;2023-03-21T10:56:15;5.03;;;3.72;;
44722;SDS011;30451;48.638;10.624;2023-03-21T10:58:42;6.07;;;3.83;;
44722;SDS011;30451;48.638;10.624;2023-03-21T11:03:41;5.45;;;3.88;;
44722;SDS011;30451;48.638;10.624;2023-03-21T11:06:13;4.97;;;3.90;;
44722;SDS011;30451;48.638;10.624;2023-03-21T11:09:17;4.95;;;3.85;;
44722;SDS011;30451;48.638;10.624;2023-03-21T11:11:51;5.13;;;3.83;;
44722;SDS011;30451;48.638;10.624;2023-03-21T11:16:56;5.05;;;3.85;;
44722;SDS011;30451;48.638;10.624;2023-03-21T11:19:28;4.90;;;3.67;;
44722;SDS011;30451;48.638;10.624;2023-03-21T11:21:56;5.05;;;3.88;;
44722;SDS011;30451;48.638;10.624;2023-03-21T11:24:32;5.28;;;3.95;;
44722;SDS011;30451;48.638;10.624;2023-03-21T11:26:59;4.45;;;3.33;;
44722;SDS011;30451;48.638;10.624;2023-03-21T11:29:32;5.47;;;4.15;;
44722;SDS011;30451;48.638;10.624;2023-03-21T11:32:00;5.20;;;3.70;;
44722;SDS011;30451;48.638;10.624;2023-03-21T11:39:56;5.40;;;4.00;;
44722;SDS011;30451;48.638;10.624;2023-03-21T11:42:42;4.78;;;3.83;;
44722;SDS011;30451;48.638;10.624;2023-03-21T11:45:14;5.03;;;3.70;;
44722;SDS011;30451;48.638;10.624;2023-03-21T11:47:42;4.53;;;3.47;;
44722;SDS011;30451;48.638;10.624;2023-03-21T11:52:42;4.65;;;3.83;;
44722;SDS011;30451;48.638;10.624;2023-03-21T11:55:30;4.53;;;3.53;;
44722;SDS011;30451;48.638;10.624;2023-03-21T12:03:45;4.60;;;3.40;;
44722;SDS011;30451;48.638;10.624;2023-03-21T12:06:36;5.30;;;3.60;;
44722;SDS011;30451;48.638;10.624;2023-03-21T12:14:27;4.25;;;3.00;;
44722;SDS011;30451;48.638;10.624;2023-03-21T12:22:49;4.82;;;3.45;;
44722;SDS011;30451;48.638;10.624;2023-03-21T12:25:31;4.40;;;3.22;;
44722;SDS011;30451;48.638;10.624;2023-03-21T12:30:58;4.28;;;3.17;;
44722;SDS011;30451;48.638;10.624;2023-03-21T12:41:44;4.22;;;3.22;;
44722;SDS011;30451;48.638;10.624;2023-03-21T12:44:32;4.70;;;3.50;;
44722;SDS011;30451;48.638;10.624;2023-03-21T12:52:43;5.78;;;4.50;;
44722;SDS011;30451;48.638;10.624;2023-03-21T12:55:18;6.30;;;4.47;;
44722;SDS011;30451;48.638;10.624;2023-03-21T13:00:34;5.83;;;4.90;;
44722;SDS011;30451;48.638;10.624;2023-03-21T13:03:14;6.10;;;5.32;;
44722;SDS011;30451;48.638;10.624;2023-03-21T13:08:22;7.53;;;5.97;;
44722;SDS011;30451;48.638;10.624;2023-03-21T13:10:49;7.30;;;6.03;;
44722;SDS011;30451;48.638;10.624;2023-03-21T13:21:35;7.28;;;6.20;;
44722;SDS011;30451;48.638;10.624;2023-03-21T13:24:03;7.80;;;6.47;;
44722;SDS011;30451;48.638;10.624;2023-03-21T13:26:42;8.05;;;6.72;;
44722;SDS011;30451;48.638;10.624;2023-03-21T13:31:48;7.82;;;6.70;;
44722;SDS011;30451;48.638;10.624;2023-03-21T13:34:15;8.73;;;6.68;;
44722;SDS011;30451;48.638;10.624;2023-03-21T13:36:42;8.13;;;6.40;;
44722;SDS011;30451;48.638;10.624;2023-03-21T13:39:15;7.50;;;6.70;;
44722;SDS011;30451;48.638;10.624;2023-03-21T13:41:52;7.60;;;6.07;;
44722;SDS011;30451;48.638;10.624;2023-03-21T13:44:23;8.35;;;6.90;;
44722;SDS011;30451;48.638;10.624;2023-03-21T13:47:03;7.47;;;6.63;;
44722;SDS011;30451;48.638;10.624;2023-03-21T13:49:34;7.93;;;6.50;;
44722;SDS011;30451;48.638;10.624;2023-03-21T13:56:59;7.57;;;6.25;;
44722;SDS011;30451;48.638;10.624;2023-03-21T14:04:28;7.28;;;6.00;;
44722;SDS011;30451;48.638;10.624;2023-03-21T14:06:57;7.35;;;5.75;;
44722;SDS011;30451;48.638;10.624;2023-03-21T14:09:38;7.32;;;5.80;;
44722;SDS011;30451;48.638;10.624;2023-03-21T14:12:14;7.20;;;5.50;;
44722;SDS011;30451;48.638;10.624;2023-03-21T14:14:46;6.68;;;5.30;;
44722;SDS011;30451;48.638;10.624;2023-03-21T14:17:26;7.25;;;5.15;;
44722;SDS011;30451;48.638;10.624;2023-03-21T14:20:13;6.75;;;5.22;;
44722;SDS011;30451;48.638;10.624;2023-03-21T14:22:45;7.43;;;5.05;;
44722;SDS011;30451;48.638;10.624;2023-03-21T14:25:12;6.93;;;5.13;;
44722;SDS011;30451;48.638;10.624;2023-03-21T14:27:44;6.35;;;4.95;;
44722;SDS011;30451;48.638;10.624;2023-03-21T14:32:56;6.50;;;4.70;;
44722;SDS011;30451;48.638;10.624;2023-03-21T14:35:44;6.00;;;4.50;;
44722;SDS011;30451;48.638;10.624;2023-03-21T14:38:21;6.55;;;4.68;;
44722;SDS011;30451;48.638;10.624;2023-03-21T14:40:51;6.10;;;4.53;;
44722;SDS011;30451;48.638;10.624;2023-03-21T14:43:20;7.53;;;4.38;;
44722;SDS011;30451;48.638;10.624;2023-03-21T14:45:47;5.50;;;4.00;;
44722;SDS011;30451;48.638;10.624;2023-03-21T14:48:17;5.13;;;4.18;;
44722;SDS011;30451;48.638;10.624;2023-03-21T14:50:44;5.25;;;4.30;;
44722;SDS011;30451;48.638;10.624;2023-03-21T14:53:19;5.30;;;4.20;;
44722;SDS011;30451;48.638;10.624;2023-03-21T14:55:50;5.97;;;4.28;;
44722;SDS011;30451;48.638;10.624;2023-03-21T14:58:45;5.53;;;3.63;;
44722;SDS011;30451;48.638;10.624;2023-03-21T15:01:12;5.03;;;3.53;;
44722;SDS011;30451;48.638;10.624;2023-03-21T15:03:53;4.82;;;3.60;;
44722;SDS011;30451;48.638;10.624;2023-03-21T15:06:19;5.13;;;3.72;;
44722;SDS011;30451;48.638;10.624;2023-03-21T15:08:55;5.82;;;3.72;;
44722;SDS011;30451;48.638;10.624;2023-03-21T15:11:29;5.03;;;3.55;;
44722;SDS011;30451;48.638;10.624;2023-03-21T15:13:57;4.57;;;3.45;;
44722;SDS011;30451;48.638;10.624;2023-03-21T15:16:25;4.60;;;3.22;;
44722;SDS011;30451;48.638;10.624;2023-03-21T15:18:51;5.63;;;3.88;;
44722;SDS011;30451;48.638;10.624;2023-03-21T15:22:00;5.82;;;3.90;;
44722;SDS011;30451;48.638;10.624;2023-03-21T15:24:13;5.00;;;3.50;;
44722;SDS011;30451;48.638;10.624;2023-03-21T15:26:47;4.53;;;3.28;;
44722;SDS011;30451;48.638;10.624;2023-03-21T15:29:14;5.13;;;3.55;;
44722;SDS011;30451;48.638;10.624;2023-03-21T15:31:41;4.13;;;3.08;;
44722;SDS011;30451;48.638;10.624;2023-03-21T15:34:18;4.95;;;3.10;;
44722;SDS011;30451;48.638;10.624;2023-03-21T15:36:47;4.70;;;3.00;;
44722;SDS011;30451;48.638;10.624;2023-03-21T15:39:15;3.97;;;2.65;;
44722;SDS011;30451;48.638;10.624;2023-03-21T15:41:54;4.18;;;2.75;;
44722;SDS011;30451;48.638;10.624;2023-03-21T15:44:46;3.92;;;2.80;;
44722;SDS011;30451;48.638;10.624;2023-03-21T15:47:13;4.70;;;3.30;;
44722;SDS011;30451;48.638;10.624;2023-03-21T15:49:39;4.93;;;3.17;;
44722;SDS011;30451;48.638;10.624;2023-03-21T15:52:12;4.65;;;3.28;;
44722;SDS011;30451;48.638;10.624;2023-03-21T15:54:44;4.53;;;3.10;;
44722;SDS011;30451;48.638;10.624;2023-03-21T15:59:49;5.03;;;3.40;;
44722;SDS011;30451;48.638;10.624;2023-03-21T16:02:20;4.25;;;3.38;;
44722;SDS011;30451;48.638;10.624;2023-03-21T16:05:22;3.97;;;3.03;;
44722;SDS011;30451;48.638;10.624;2023-03-21T16:07:45;4.55;;;3.10;;
44722;SDS011;30451;48.638;10.624;2023-03-21T16:10:30;4.85;;;3.20;;
44722;SDS011;30451;48.638;10.624;2023-03-21T16:12:58;3.88;;;3.10;;
44722;SDS011;30451;48.638;10.624;2023-03-21T16:15:25;4.68;;;3.08;;
44722;SDS011;30451;48.638;10.624;2023-03-21T16:17:59;4.45;;;3.10;;
44722;SDS011;30451;48.638;10.624;2023-03-21T16:20:27;4.38;;;3.08;;
44722;SDS011;30451;48.638;10.624;2023-03-21T16:22:58;4.38;;;3.10;;
44722;SDS011;30451;48.638;10.624;2023-03-21T16:25:25;4.25;;;3.03;;
44722;SDS011;30451;48.638;10.624;2023-03-21T16:27:51;4.10;;;2.80;;
44722;SDS011;30451;48.638;10.624;2023-03-21T16:30:18;4.47;;;3.20;;
44722;SDS011;30451;48.638;10.624;2023-03-21T16:32:45;4.55;;;3.13;;
44722;SDS011;30451;48.638;10.624;2023-03-21T16:35:12;5.32;;;2.88;;
44722;SDS011;30451;48.638;10.624;2023-03-21T16:37:38;4.53;;;3.45;;
44722;SDS011;30451;48.638;10.624;2023-03-21T16:40:20;4.22;;;2.85;;
44722;SDS011;30451;48.638;10.624;2023-03-21T16:42:50;5.47;;;3.50;;
44722;SDS011;30451;48.638;10.624;2023-03-21T16:45:15;4.35;;;3.35;;
44722;SDS011;30451;48.638;10.624;2023-03-21T16:47:41;4.30;;;2.95;;